sensor_id;sensor_type;location;lat;lon;timestamp;pressure;altitude;pressure_sealevel;temperature
44429;BMP180;30134;47.866;-4.222;2022-09-03T00:02:06;101054.00;;;27.40
44429;BMP180;30134;47.866;-4.222;2022-09-03T00:04:47;101052.00;;;27.60
44429;BMP180;30134;47.866;-4.222;2022-09-03T00:08:26;101048.00;;;27.40
44429;BMP180;30134;47.866;-4.222;2022-09-03T00:13:09;101039.00;;;27.60
44429;BMP180;30134;47.866;-4.222;2022-09-03T00:15:39;101045.00;;;27.50
44429;BMP180;30134;47.866;-4.222;2022-09-03T00:18:08;101042.00;;;27.50
44429;BMP180;30134;47.866;-4.222;2022-09-03T00:20:44;101039.00;;;27.60
44429;BMP180;30134;47.866;-4.222;2022-09-03T00:23:20;101038.00;;;27.60
44429;BMP180;30134;47.866;-4.222;2022-09-03T00:28:56;101036.00;;;27.30
44429;BMP180;30134;47.866;-4.222;2022-09-03T00:31:36;101037.00;;;27.60
44429;BMP180;30134;47.866;-4.222;2022-09-03T00:36:52;101040.00;;;27.50
44429;BMP180;30134;47.866;-4.222;2022-09-03T00:39:20;101036.00;;;27.50
44429;BMP180;30134;47.866;-4.222;2022-09-03T00:50:55;101031.00;;;27.50
44429;BMP180;30134;47.866;-4.222;2022-09-03T00:53:52;101024.00;;;27.40
44429;BMP180;30134;47.866;-4.222;2022-09-03T01:05:15;101019.00;;;27.30
44429;BMP180;30134;47.866;-4.222;2022-09-03T01:10:58;101013.00;;;27.50
44429;BMP180;30134;47.866;-4.222;2022-09-03T01:13:44;101010.00;;;27.30
44429;BMP180;30134;47.866;-4.222;2022-09-03T01:32:19;101010.00;;;27.50
44429;BMP180;30134;47.866;-4.222;2022-09-03T01:43:27;101007.00;;;27.40
44429;BMP180;30134;47.866;-4.222;2022-09-03T01:46:42;101005.00;;;27.30
44429;BMP180;30134;47.866;-4.222;2022-09-03T01:51:28;101001.00;;;27.50
44429;BMP180;30134;47.866;-4.222;2022-09-03T01:59:58;101002.00;;;27.20
44429;BMP180;30134;47.866;-4.222;2022-09-03T02:02:26;101000.00;;;27.30
44429;BMP180;30134;47.866;-4.222;2022-09-03T02:07:33;101001.00;;;27.30
44429;BMP180;30134;47.866;-4.222;2022-09-03T02:10:01;101003.00;;;27.40
44429;BMP180;30134;47.866;-4.222;2022-09-03T02:12:29;100997.00;;;27.10
44429;BMP180;30134;47.866;-4.222;2022-09-03T02:14:59;100996.00;;;27.40
44429;BMP180;30134;47.866;-4.222;2022-09-03T02:17:29;100989.00;;;27.40
44429;BMP180;30134;47.866;-4.222;2022-09-03T02:19:56;100994.00;;;27.20
44429;BMP180;30134;47.866;-4.222;2022-09-03T02:22:23;100985.00;;;27.30
44429;BMP180;30134;47.866;-4.222;2022-09-03T02:24:49;100990.00;;;27.30
44429;BMP180;30134;47.866;-4.222;2022-09-03T02:27:14;100983.00;;;27.30
44429;BMP180;30134;47.866;-4.222;2022-09-03T02:29:42;100979.00;;;27.40
44429;BMP180;30134;47.866;-4.222;2022-09-03T02:32:08;100976.00;;;27.30
44429;BMP180;30134;47.866;-4.222;2022-09-03T02:34:34;100972.00;;;27.20
44429;BMP180;30134;47.866;-4.222;2022-09-03T02:36:59;100982.00;;;27.10
44429;BMP180;30134;47.866;-4.222;2022-09-03T02:39:36;100972.00;;;27.10
44429;BMP180;30134;47.866;-4.222;2022-09-03T02:42:03;100981.00;;;27.20
44429;BMP180;30134;47.866;-4.222;2022-09-03T02:44:30;100982.00;;;27.30
44429;BMP180;30134;47.866;-4.222;2022-09-03T02:47:00;100992.00;;;27.40
44429;BMP180;30134;47.866;-4.222;2022-09-03T02:49:26;100985.00;;;27.20
44429;BMP180;30134;47.866;-4.222;2022-09-03T02:51:57;100990.00;;;27.30
44429;BMP180;30134;47.866;-4.222;2022-09-03T02:54:27;100988.00;;;27.30
44429;BMP180;30134;47.866;-4.222;2022-09-03T02:56:53;100989.00;;;27.40
44429;BMP180;30134;47.866;-4.222;2022-09-03T02:59:19;100987.00;;;27.10
44429;BMP180;30134;47.866;-4.222;2022-09-03T03:01:47;100995.00;;;27.10
44429;BMP180;30134;47.866;-4.222;2022-09-03T03:04:13;100989.00;;;27.10
44429;BMP180;30134;47.866;-4.222;2022-09-03T03:06:39;100984.00;;;27.30
44429;BMP180;30134;47.866;-4.222;2022-09-03T03:09:05;100990.00;;;27.30
44429;BMP180;30134;47.866;-4.222;2022-09-03T03:11:32;100981.00;;;27.30
44429;BMP180;30134;47.866;-4.222;2022-09-03T03:13:59;100981.00;;;27.30
44429;BMP180;30134;47.866;-4.222;2022-09-03T03:16:25;100978.00;;;27.30
44429;BMP180;30134;47.866;-4.222;2022-09-03T03:18:51;100982.00;;;27.10
44429;BMP180;30134;47.866;-4.222;2022-09-03T03:21:17;100979.00;;;27.00
44429;BMP180;30134;47.866;-4.222;2022-09-03T03:23:43;100970.00;;;27.20
44429;BMP180;30134;47.866;-4.222;2022-09-03T03:26:11;100972.00;;;27.20
44429;BMP180;30134;47.866;-4.222;2022-09-03T03:28:37;100974.00;;;27.10
44429;BMP180;30134;47.866;-4.222;2022-09-03T03:31:14;100967.00;;;27.40
44429;BMP180;30134;47.866;-4.222;2022-09-03T03:33:40;100966.00;;;27.10
44429;BMP180;30134;47.866;-4.222;2022-09-03T03:36:12;100967.00;;;27.20
44429;BMP180;30134;47.866;-4.222;2022-09-03T03:38:39;100968.00;;;27.20
44429;BMP180;30134;47.866;-4.222;2022-09-03T03:41:17;100969.00;;;27.30
44429;BMP180;30134;47.866;-4.222;2022-09-03T03:43:44;100965.00;;;27.20
44429;BMP180;30134;47.866;-4.222;2022-09-03T03:46:10;100970.00;;;27.30
44429;BMP180;30134;47.866;-4.222;2022-09-03T03:48:36;100967.00;;;27.10
44429;BMP180;30134;47.866;-4.222;2022-09-03T03:51:05;100971.00;;;27.30
44429;BMP180;30134;47.866;-4.222;2022-09-03T03:53:33;100966.00;;;27.30
44429;BMP180;30134;47.866;-4.222;2022-09-03T03:56:01;100968.00;;;27.20
44429;BMP180;30134;47.866;-4.222;2022-09-03T03:58:29;100967.00;;;27.00
44429;BMP180;30134;47.866;-4.222;2022-09-03T04:03:30;100965.00;;;27.20
44429;BMP180;30134;47.866;-4.222;2022-09-03T04:05:58;100959.00;;;27.20
44429;BMP180;30134;47.866;-4.222;2022-09-03T04:08:26;100960.00;;;27.00
44429;BMP180;30134;47.866;-4.222;2022-09-03T04:10:52;100953.00;;;27.10
44429;BMP180;30134;47.866;-4.222;2022-09-03T04:13:18;100954.00;;;27.00
44429;BMP180;30134;47.866;-4.222;2022-09-03T04:15:44;100956.00;;;27.20
44429;BMP180;30134;47.866;-4.222;2022-09-03T04:18:11;100957.00;;;27.10
44429;BMP180;30134;47.866;-4.222;2022-09-03T04:20:37;100954.00;;;27.30
44429;BMP180;30134;47.866;-4.222;2022-09-03T04:23:03;100954.00;;;27.20
44429;BMP180;30134;47.866;-4.222;2022-09-03T04:25:29;100958.00;;;27.10
44429;BMP180;30134;47.866;-4.222;2022-09-03T04:27:56;100951.00;;;27.00
44429;BMP180;30134;47.866;-4.222;2022-09-03T04:30:22;100960.00;;;27.10
44429;BMP180;30134;47.866;-4.222;2022-09-03T04:32:49;100951.00;;;27.20
44429;BMP180;30134;47.866;-4.222;2022-09-03T04:35:24;100952.00;;;27.10
44429;BMP180;30134;47.866;-4.222;2022-09-03T04:37:50;100953.00;;;27.00
44429;BMP180;30134;47.866;-4.222;2022-09-03T04:40:19;100951.00;;;27.20
44429;BMP180;30134;47.866;-4.222;2022-09-03T04:42:45;100952.00;;;26.90
44429;BMP180;30134;47.866;-4.222;2022-09-03T04:45:11;100954.00;;;27.00
44429;BMP180;30134;47.866;-4.222;2022-09-03T04:47:44;100955.00;;;26.80
44429;BMP180;30134;47.866;-4.222;2022-09-03T04:50:12;100953.00;;;27.10
44429;BMP180;30134;47.866;-4.222;2022-09-03T04:52:38;100958.00;;;27.10
44429;BMP180;30134;47.866;-4.222;2022-09-03T04:55:04;100951.00;;;27.00
44429;BMP180;30134;47.866;-4.222;2022-09-03T04:57:32;100945.00;;;27.10
44429;BMP180;30134;47.866;-4.222;2022-09-03T05:00:03;100951.00;;;27.00
44429;BMP180;30134;47.866;-4.222;2022-09-03T05:02:29;100954.00;;;26.90
44429;BMP180;30134;47.866;-4.222;2022-09-03T05:04:55;100950.00;;;27.00
44429;BMP180;30134;47.866;-4.222;2022-09-03T05:07:24;100951.00;;;27.10
44429;BMP180;30134;47.866;-4.222;2022-09-03T05:09:53;100948.00;;;27.00
44429;BMP180;30134;47.866;-4.222;2022-09-03T05:12:19;100957.00;;;27.00
44429;BMP180;30134;47.866;-4.222;2022-09-03T05:14:48;100953.00;;;27.10
44429;BMP180;30134;47.866;-4.222;2022-09-03T05:17:14;100946.00;;;27.00
44429;BMP180;30134;47.866;-4.222;2022-09-03T05:19:40;100947.00;;;27.00
44429;BMP180;30134;47.866;-4.222;2022-09-03T05:22:06;100948.00;;;26.90
44429;BMP180;30134;47.866;-4.222;2022-09-03T05:24:34;100938.00;;;27.00
44429;BMP180;30134;47.866;-4.222;2022-09-03T05:27:00;100929.00;;;27.00
44429;BMP180;30134;47.866;-4.222;2022-09-03T05:29:26;100941.00;;;27.10
44429;BMP180;30134;47.866;-4.222;2022-09-03T05:31:53;100946.00;;;27.20
44429;BMP180;30134;47.866;-4.222;2022-09-03T05:34:19;100942.00;;;26.90
44429;BMP180;30134;47.866;-4.222;2022-09-03T05:36:45;100949.00;;;27.00
44429;BMP180;30134;47.866;-4.222;2022-09-03T05:39:14;100942.00;;;27.00
44429;BMP180;30134;47.866;-4.222;2022-09-03T05:41:40;100935.00;;;26.90
44429;BMP180;30134;47.866;-4.222;2022-09-03T05:44:07;100944.00;;;26.90
44429;BMP180;30134;47.866;-4.222;2022-09-03T05:46:33;100943.00;;;27.00
44429;BMP180;30134;47.866;-4.222;2022-09-03T05:49:03;100948.00;;;27.00
44429;BMP180;30134;47.866;-4.222;2022-09-03T05:51:30;100941.00;;;27.10
44429;BMP180;30134;47.866;-4.222;2022-09-03T05:53:57;100947.00;;;27.00
44429;BMP180;30134;47.866;-4.222;2022-09-03T05:56:25;100947.00;;;26.80
44429;BMP180;30134;47.866;-4.222;2022-09-03T05:58:52;100947.00;;;26.90
44429;BMP180;30134;47.866;-4.222;2022-09-03T06:01:20;100948.00;;;27.00
44429;BMP180;30134;47.866;-4.222;2022-09-03T06:04:03;100952.00;;;26.80
44429;BMP180;30134;47.866;-4.222;2022-09-03T06:06:31;100948.00;;;26.80
44429;BMP180;30134;47.866;-4.222;2022-09-03T06:08:58;100946.00;;;26.90
44429;BMP180;30134;47.866;-4.222;2022-09-03T06:11:25;100953.00;;;27.00
44429;BMP180;30134;47.866;-4.222;2022-09-03T06:13:53;100947.00;;;26.70
44429;BMP180;30134;47.866;-4.222;2022-09-03T06:16:21;100947.00;;;27.00
44429;BMP180;30134;47.866;-4.222;2022-09-03T06:18:48;100943.00;;;26.90
44429;BMP180;30134;47.866;-4.222;2022-09-03T06:21:14;100946.00;;;26.90
44429;BMP180;30134;47.866;-4.222;2022-09-03T06:23:41;100946.00;;;26.60
44429;BMP180;30134;47.866;-4.222;2022-09-03T06:26:08;100944.00;;;27.00
44429;BMP180;30134;47.866;-4.222;2022-09-03T06:28:35;100943.00;;;26.70
44429;BMP180;30134;47.866;-4.222;2022-09-03T06:31:03;100937.00;;;26.80
44429;BMP180;30134;47.866;-4.222;2022-09-03T06:33:30;100948.00;;;26.80
44429;BMP180;30134;47.866;-4.222;2022-09-03T06:35:59;100945.00;;;26.90
44429;BMP180;30134;47.866;-4.222;2022-09-03T06:38:26;100948.00;;;26.80
44429;BMP180;30134;47.866;-4.222;2022-09-03T06:40:57;100946.00;;;26.90
44429;BMP180;30134;47.866;-4.222;2022-09-03T06:43:27;100948.00;;;26.50
44429;BMP180;30134;47.866;-4.222;2022-09-03T06:45:58;100939.00;;;26.80
44429;BMP180;30134;47.866;-4.222;2022-09-03T06:48:25;100940.00;;;26.90
44429;BMP180;30134;47.866;-4.222;2022-09-03T06:50:55;100941.00;;;26.80
44429;BMP180;30134;47.866;-4.222;2022-09-03T06:53:24;100948.00;;;26.80
44429;BMP180;30134;47.866;-4.222;2022-09-03T06:55:54;100950.00;;;26.80
44429;BMP180;30134;47.866;-4.222;2022-09-03T06:58:21;100950.00;;;26.90
44429;BMP180;30134;47.866;-4.222;2022-09-03T07:00:48;100948.00;;;26.80
44429;BMP180;30134;47.866;-4.222;2022-09-03T07:03:15;100957.00;;;26.60
44429;BMP180;30134;47.866;-4.222;2022-09-03T07:05:42;100957.00;;;26.80
44429;BMP180;30134;47.866;-4.222;2022-09-03T07:08:09;100963.00;;;26.70
44429;BMP180;30134;47.866;-4.222;2022-09-03T07:10:37;100960.00;;;26.60
44429;BMP180;30134;47.866;-4.222;2022-09-03T07:13:04;100969.00;;;26.60
44429;BMP180;30134;47.866;-4.222;2022-09-03T07:15:33;100968.00;;;26.60
44429;BMP180;30134;47.866;-4.222;2022-09-03T07:17:59;100965.00;;;26.50
44429;BMP180;30134;47.866;-4.222;2022-09-03T07:20:27;100969.00;;;26.60
44429;BMP180;30134;47.866;-4.222;2022-09-03T07:22:54;100969.00;;;26.50
44429;BMP180;30134;47.866;-4.222;2022-09-03T07:25:22;100969.00;;;26.40
44429;BMP180;30134;47.866;-4.222;2022-09-03T07:27:48;100966.00;;;26.50
44429;BMP180;30134;47.866;-4.222;2022-09-03T07:30:16;100962.00;;;26.50
44429;BMP180;30134;47.866;-4.222;2022-09-03T07:32:44;100969.00;;;26.40
44429;BMP180;30134;47.866;-4.222;2022-09-03T07:35:11;100976.00;;;26.30
44429;BMP180;30134;47.866;-4.222;2022-09-03T07:37:41;100980.00;;;26.30
44429;BMP180;30134;47.866;-4.222;2022-09-03T07:40:09;100977.00;;;26.40
44429;BMP180;30134;47.866;-4.222;2022-09-03T07:42:36;100973.00;;;26.30
44429;BMP180;30134;47.866;-4.222;2022-09-03T07:45:06;100972.00;;;26.30
44429;BMP180;30134;47.866;-4.222;2022-09-03T07:47:35;100970.00;;;26.30
44429;BMP180;30134;47.866;-4.222;2022-09-03T07:50:03;100967.00;;;26.00
44429;BMP180;30134;47.866;-4.222;2022-09-03T07:52:29;100969.00;;;26.10
44429;BMP180;30134;47.866;-4.222;2022-09-03T07:54:56;100977.00;;;26.20
44429;BMP180;30134;47.866;-4.222;2022-09-03T07:57:23;100975.00;;;26.00
44429;BMP180;30134;47.866;-4.222;2022-09-03T07:59:49;100977.00;;;26.10
44429;BMP180;30134;47.866;-4.222;2022-09-03T08:02:15;100984.00;;;25.90
44429;BMP180;30134;47.866;-4.222;2022-09-03T08:04:40;100984.00;;;25.70
44429;BMP180;30134;47.866;-4.222;2022-09-03T08:07:07;100979.00;;;25.70
44429;BMP180;30134;47.866;-4.222;2022-09-03T08:09:35;100982.00;;;26.00
44429;BMP180;30134;47.866;-4.222;2022-09-03T08:12:01;100980.00;;;26.00
44429;BMP180;30134;47.866;-4.222;2022-09-03T08:14:26;100981.00;;;25.80
44429;BMP180;30134;47.866;-4.222;2022-09-03T08:16:54;100985.00;;;25.90
44429;BMP180;30134;47.866;-4.222;2022-09-03T08:19:20;100984.00;;;25.70
44429;BMP180;30134;47.866;-4.222;2022-09-03T08:21:47;100984.00;;;25.80
44429;BMP180;30134;47.866;-4.222;2022-09-03T08:24:15;100980.00;;;26.00
44429;BMP180;30134;47.866;-4.222;2022-09-03T08:26:41;100991.00;;;25.70
44429;BMP180;30134;47.866;-4.222;2022-09-03T08:29:07;100985.00;;;25.80
44429;BMP180;30134;47.866;-4.222;2022-09-03T08:31:34;100989.00;;;25.60
44429;BMP180;30134;47.866;-4.222;2022-09-03T08:34:01;100990.00;;;25.70
44429;BMP180;30134;47.866;-4.222;2022-09-03T08:36:30;100990.00;;;25.70
44429;BMP180;30134;47.866;-4.222;2022-09-03T08:38:58;100996.00;;;25.60
44429;BMP180;30134;47.866;-4.222;2022-09-03T08:41:49;101001.00;;;25.40
44429;BMP180;30134;47.866;-4.222;2022-09-03T08:44:44;100986.00;;;25.70
44429;BMP180;30134;47.866;-4.222;2022-09-03T08:50:30;100997.00;;;25.70
44429;BMP180;30134;47.866;-4.222;2022-09-03T08:56:07;101000.00;;;25.70
44429;BMP180;30134;47.866;-4.222;2022-09-03T08:58:34;101002.00;;;25.70
44429;BMP180;30134;47.866;-4.222;2022-09-03T09:06:52;100998.00;;;25.50
44429;BMP180;30134;47.866;-4.222;2022-09-03T09:10:18;101006.00;;;25.60
44429;BMP180;30134;47.866;-4.222;2022-09-03T09:12:40;101002.00;;;25.50
44429;BMP180;30134;47.866;-4.222;2022-09-03T09:15:18;101004.00;;;25.60
44429;BMP180;30134;47.866;-4.222;2022-09-03T09:20:52;101020.00;;;25.60
44429;BMP180;30134;47.866;-4.222;2022-09-03T09:23:30;101018.00;;;25.50
44429;BMP180;30134;47.866;-4.222;2022-09-03T09:25:59;101010.00;;;25.50
44429;BMP180;30134;47.866;-4.222;2022-09-03T09:28:35;101010.00;;;25.50
44429;BMP180;30134;47.866;-4.222;2022-09-03T09:31:03;101014.00;;;25.60
44429;BMP180;30134;47.866;-4.222;2022-09-03T09:33:31;101013.00;;;25.40
44429;BMP180;30134;47.866;-4.222;2022-09-03T09:36:05;101011.00;;;25.50
44429;BMP180;30134;47.866;-4.222;2022-09-03T09:38:35;101011.00;;;25.40
44429;BMP180;30134;47.866;-4.222;2022-09-03T09:43:40;101013.00;;;25.30
44429;BMP180;30134;47.866;-4.222;2022-09-03T09:46:24;101016.00;;;25.50
44429;BMP180;30134;47.866;-4.222;2022-09-03T09:48:58;101009.00;;;25.20
44429;BMP180;30134;47.866;-4.222;2022-09-03T09:51:27;101013.00;;;25.10
44429;BMP180;30134;47.866;-4.222;2022-09-03T09:54:13;101010.00;;;25.40
44429;BMP180;30134;47.866;-4.222;2022-09-03T09:56:41;101008.00;;;25.30
44429;BMP180;30134;47.866;-4.222;2022-09-03T09:59:10;101015.00;;;25.20
44429;BMP180;30134;47.866;-4.222;2022-09-03T10:01:40;101010.00;;;25.00
44429;BMP180;30134;47.866;-4.222;2022-09-03T10:04:22;101007.00;;;25.00
44429;BMP180;30134;47.866;-4.222;2022-09-03T10:06:57;101006.00;;;25.30
44429;BMP180;30134;47.866;-4.222;2022-09-03T10:09:31;101003.00;;;25.30
44429;BMP180;30134;47.866;-4.222;2022-09-03T10:12:25;101008.00;;;25.00
44429;BMP180;30134;47.866;-4.222;2022-09-03T10:17:57;101002.00;;;25.00
44429;BMP180;30134;47.866;-4.222;2022-09-03T10:20:45;101005.00;;;25.20
44429;BMP180;30134;47.866;-4.222;2022-09-03T10:26:00;101005.00;;;25.30
44429;BMP180;30134;47.866;-4.222;2022-09-03T10:28:38;101010.00;;;24.70
44429;BMP180;30134;47.866;-4.222;2022-09-03T10:33:56;101007.00;;;25.30
44429;BMP180;30134;47.866;-4.222;2022-09-03T10:36:27;101014.00;;;25.40
44429;BMP180;30134;47.866;-4.222;2022-09-03T10:41:47;101010.00;;;25.30
44429;BMP180;30134;47.866;-4.222;2022-09-03T10:44:58;101003.00;;;25.30
44429;BMP180;30134;47.866;-4.222;2022-09-03T10:53:06;101009.00;;;25.00
44429;BMP180;30134;47.866;-4.222;2022-09-03T10:55:48;101006.00;;;25.00
44429;BMP180;30134;47.866;-4.222;2022-09-03T11:01:00;101007.00;;;25.20
44429;BMP180;30134;47.866;-4.222;2022-09-03T11:06:30;101004.00;;;24.80
44429;BMP180;30134;47.866;-4.222;2022-09-03T11:11:56;101010.00;;;25.20
44429;BMP180;30134;47.866;-4.222;2022-09-03T11:14:41;101006.00;;;25.00
44429;BMP180;30134;47.866;-4.222;2022-09-03T11:17:58;101005.00;;;25.00
44429;BMP180;30134;47.866;-4.222;2022-09-03T11:22:29;100995.00;;;25.00
44429;BMP180;30134;47.866;-4.222;2022-09-03T11:24:58;100999.00;;;25.10
44429;BMP180;30134;47.866;-4.222;2022-09-03T11:30:04;100992.00;;;25.10
44429;BMP180;30134;47.866;-4.222;2022-09-03T11:38:03;100991.00;;;25.00
44429;BMP180;30134;47.866;-4.222;2022-09-03T11:40:37;100989.00;;;25.20
44429;BMP180;30134;47.866;-4.222;2022-09-03T11:48:41;100991.00;;;25.00
44429;BMP180;30134;47.866;-4.222;2022-09-03T11:51:28;100988.00;;;25.30
44429;BMP180;30134;47.866;-4.222;2022-09-03T11:53:56;100986.00;;;25.10
44429;BMP180;30134;47.866;-4.222;2022-09-03T11:56:23;100985.00;;;25.30
44429;BMP180;30134;47.866;-4.222;2022-09-03T11:59:05;100994.00;;;25.10
44429;BMP180;30134;47.866;-4.222;2022-09-03T12:01:32;100982.00;;;25.40
44429;BMP180;30134;47.866;-4.222;2022-09-03T12:04:02;100991.00;;;25.30
44429;BMP180;30134;47.866;-4.222;2022-09-03T12:06:33;100984.00;;;25.10
44429;BMP180;30134;47.866;-4.222;2022-09-03T12:14:22;100981.00;;;25.30
44429;BMP180;30134;47.866;-4.222;2022-09-03T12:19:26;100983.00;;;25.10
44429;BMP180;30134;47.866;-4.222;2022-09-03T12:21:53;100984.00;;;25.40
44429;BMP180;30134;47.866;-4.222;2022-09-03T12:24:21;100987.00;;;25.10
44429;BMP180;30134;47.866;-4.222;2022-09-03T12:26:47;100990.00;;;25.40
44429;BMP180;30134;47.866;-4.222;2022-09-03T12:29:22;100992.00;;;25.10
44429;BMP180;30134;47.866;-4.222;2022-09-03T12:31:49;100993.00;;;25.30
44429;BMP180;30134;47.866;-4.222;2022-09-03T12:34:19;100974.00;;;25.10
44429;BMP180;30134;47.866;-4.222;2022-09-03T12:36:49;100996.00;;;25.30
44429;BMP180;30134;47.866;-4.222;2022-09-03T12:39:21;100985.00;;;25.50
44429;BMP180;30134;47.866;-4.222;2022-09-03T12:42:01;100996.00;;;25.30
44429;BMP180;30134;47.866;-4.222;2022-09-03T12:44:31;100990.00;;;25.50
44429;BMP180;30134;47.866;-4.222;2022-09-03T12:47:01;100995.00;;;25.70
44429;BMP180;30134;47.866;-4.222;2022-09-03T12:49:39;100985.00;;;25.70
44429;BMP180;30134;47.866;-4.222;2022-09-03T12:52:27;100985.00;;;25.40
44429;BMP180;30134;47.866;-4.222;2022-09-03T12:55:03;100992.00;;;25.50
44429;BMP180;30134;47.866;-4.222;2022-09-03T12:57:37;100990.00;;;25.60
44429;BMP180;30134;47.866;-4.222;2022-09-03T13:00:08;100991.00;;;25.50
44429;BMP180;30134;47.866;-4.222;2022-09-03T13:05:17;100989.00;;;25.30
44429;BMP180;30134;47.866;-4.222;2022-09-03T13:07:49;100996.00;;;25.60
44429;BMP180;30134;47.866;-4.222;2022-09-03T13:10:38;100995.00;;;25.50
44429;BMP180;30134;47.866;-4.222;2022-09-03T13:13:21;101000.00;;;25.40
44429;BMP180;30134;47.866;-4.222;2022-09-03T13:32:23;100993.00;;;25.70
44429;BMP180;30134;47.866;-4.222;2022-09-03T13:34:56;100994.00;;;25.80
44429;BMP180;30134;47.866;-4.222;2022-09-03T13:40:11;100988.00;;;25.80
44429;BMP180;30134;47.866;-4.222;2022-09-03T13:43:15;100993.00;;;25.80
44429;BMP180;30134;47.866;-4.222;2022-09-03T13:45:44;100989.00;;;25.80
44429;BMP180;30134;47.866;-4.222;2022-09-03T13:48:19;100992.00;;;25.90
44429;BMP180;30134;47.866;-4.222;2022-09-03T13:51:21;100981.00;;;25.90
44429;BMP180;30134;47.866;-4.222;2022-09-03T13:54:28;100985.00;;;25.80
44429;BMP180;30134;47.866;-4.222;2022-09-03T13:57:24;100979.00;;;25.80
44429;BMP180;30134;47.866;-4.222;2022-09-03T14:00:06;100980.00;;;26.00
44429;BMP180;30134;47.866;-4.222;2022-09-03T14:02:57;100978.00;;;26.00
44429;BMP180;30134;47.866;-4.222;2022-09-03T14:05:42;100984.00;;;25.90
44429;BMP180;30134;47.866;-4.222;2022-09-03T14:08:31;100979.00;;;25.90
44429;BMP180;30134;47.866;-4.222;2022-09-03T14:16:37;100975.00;;;25.90
44429;BMP180;30134;47.866;-4.222;2022-09-03T14:19:31;100983.00;;;25.80
44429;BMP180;30134;47.866;-4.222;2022-09-03T14:22:00;100972.00;;;26.00
44429;BMP180;30134;47.866;-4.222;2022-09-03T14:24:47;100972.00;;;26.00
44429;BMP180;30134;47.866;-4.222;2022-09-03T14:27:22;100977.00;;;26.00
44429;BMP180;30134;47.866;-4.222;2022-09-03T14:29:59;100973.00;;;26.10
44429;BMP180;30134;47.866;-4.222;2022-09-03T14:32:46;100973.00;;;26.00
44429;BMP180;30134;47.866;-4.222;2022-09-03T14:35:37;100970.00;;;26.00
44429;BMP180;30134;47.866;-4.222;2022-09-03T14:40:51;100966.00;;;26.10
44429;BMP180;30134;47.866;-4.222;2022-09-03T14:45:55;100962.00;;;26.10
44429;BMP180;30134;47.866;-4.222;2022-09-03T15:01:31;100964.00;;;26.20
44429;BMP180;30134;47.866;-4.222;2022-09-03T15:15:20;100958.00;;;26.30
44429;BMP180;30134;47.866;-4.222;2022-09-03T15:17:54;100954.00;;;26.30
44429;BMP180;30134;47.866;-4.222;2022-09-03T15:20:32;100951.00;;;26.20
44429;BMP180;30134;47.866;-4.222;2022-09-03T15:31:10;100951.00;;;26.20
44429;BMP180;30134;47.866;-4.222;2022-09-03T15:36:17;100949.00;;;26.30
44429;BMP180;30134;47.866;-4.222;2022-09-03T15:38:58;100949.00;;;26.20
44429;BMP180;30134;47.866;-4.222;2022-09-03T15:41:38;100956.00;;;26.30
44429;BMP180;30134;47.866;-4.222;2022-09-03T15:44:10;100946.00;;;26.30
44429;BMP180;30134;47.866;-4.222;2022-09-03T15:49:24;100949.00;;;26.30
44429;BMP180;30134;47.866;-4.222;2022-09-03T15:52:06;100948.00;;;26.40
44429;BMP180;30134;47.866;-4.222;2022-09-03T15:54:58;100947.00;;;26.30
44429;BMP180;30134;47.866;-4.222;2022-09-03T15:58:07;100944.00;;;26.30
44429;BMP180;30134;47.866;-4.222;2022-09-03T16:00:59;100946.00;;;26.30
44429;BMP180;30134;47.866;-4.222;2022-09-03T16:03:38;100945.00;;;26.30
44429;BMP180;30134;47.866;-4.222;2022-09-03T16:06:45;100945.00;;;26.30
44429;BMP180;30134;47.866;-4.222;2022-09-03T16:09:28;100943.00;;;26.30
44429;BMP180;30134;47.866;-4.222;2022-09-03T16:12:19;100941.00;;;26.30
44429;BMP180;30134;47.866;-4.222;2022-09-03T16:15:04;100944.00;;;26.40
44429;BMP180;30134;47.866;-4.222;2022-09-03T16:17:48;100934.00;;;26.10
44429;BMP180;30134;47.866;-4.222;2022-09-03T16:23:04;100932.00;;;25.90
44429;BMP180;30134;47.866;-4.222;2022-09-03T16:25:34;100933.00;;;26.30
44429;BMP180;30134;47.866;-4.222;2022-09-03T16:31:20;100940.00;;;26.40
44429;BMP180;30134;47.866;-4.222;2022-09-03T16:39:21;100944.00;;;26.30
44429;BMP180;30134;47.866;-4.222;2022-09-03T16:56:26;100949.00;;;26.30
44429;BMP180;30134;47.866;-4.222;2022-09-03T17:07:07;100935.00;;;26.30
44429;BMP180;30134;47.866;-4.222;2022-09-03T17:10:07;100938.00;;;26.00
44429;BMP180;30134;47.866;-4.222;2022-09-03T17:30:05;100932.00;;;26.20
44429;BMP180;30134;47.866;-4.222;2022-09-03T17:41:20;100925.00;;;26.10
44429;BMP180;30134;47.866;-4.222;2022-09-03T17:44:12;100920.00;;;26.00
44429;BMP180;30134;47.866;-4.222;2022-09-03T17:47:11;100926.00;;;25.90
44429;BMP180;30134;47.866;-4.222;2022-09-03T17:49:47;100926.00;;;26.10
44429;BMP180;30134;47.866;-4.222;2022-09-03T17:54:47;100927.00;;;26.20
44429;BMP180;30134;47.866;-4.222;2022-09-03T17:57:25;100933.00;;;25.80
44429;BMP180;30134;47.866;-4.222;2022-09-03T18:00:09;100937.00;;;26.20
44429;BMP180;30134;47.866;-4.222;2022-09-03T18:07:57;100934.00;;;26.10
44429;BMP180;30134;47.866;-4.222;2022-09-03T18:10:57;100940.00;;;25.90
44429;BMP180;30134;47.866;-4.222;2022-09-03T18:16:32;100921.00;;;26.00
44429;BMP180;30134;47.866;-4.222;2022-09-03T18:19:07;100921.00;;;25.80
44429;BMP180;30134;47.866;-4.222;2022-09-03T18:21:42;100920.00;;;26.10
44429;BMP180;30134;47.866;-4.222;2022-09-03T18:24:39;100929.00;;;25.90
44429;BMP180;30134;47.866;-4.222;2022-09-03T18:27:53;100924.00;;;25.90
44429;BMP180;30134;47.866;-4.222;2022-09-03T18:30:43;100925.00;;;26.10
44429;BMP180;30134;47.866;-4.222;2022-09-03T18:33:27;100917.00;;;26.20
44429;BMP180;30134;47.866;-4.222;2022-09-03T18:36:12;100923.00;;;26.00
44429;BMP180;30134;47.866;-4.222;2022-09-03T18:39:25;100920.00;;;25.90
44429;BMP180;30134;47.866;-4.222;2022-09-03T18:42:18;100923.00;;;26.10
44429;BMP180;30134;47.866;-4.222;2022-09-03T18:45:12;100933.00;;;26.00
44429;BMP180;30134;47.866;-4.222;2022-09-03T18:54:26;100921.00;;;26.00
44429;BMP180;30134;47.866;-4.222;2022-09-03T18:57:42;100930.00;;;25.90
44429;BMP180;30134;47.866;-4.222;2022-09-03T19:00:23;100931.00;;;25.90
44429;BMP180;30134;47.866;-4.222;2022-09-03T19:03:28;100936.00;;;26.00